sensor_id;sensor_type;location;lat;lon;timestamp;temperature;humidity
50758;DHT22;36732;47.980;11.652;2024-02-26T00:01:27;7.80;54.50
50758;DHT22;36732;47.980;11.652;2024-02-26T00:03:52;7.80;54.60
50758;DHT22;36732;47.980;11.652;2024-02-26T00:06:20;7.80;54.50
50758;DHT22;36732;47.980;11.652;2024-02-26T00:08:46;7.80;54.50
50758;DHT22;36732;47.980;11.652;2024-02-26T00:11:12;7.80;54.40
50758;DHT22;36732;47.980;11.652;2024-02-26T00:13:38;7.80;54.30
50758;DHT22;36732;47.980;11.652;2024-02-26T00:16:04;7.70;54.20
50758;DHT22;36732;47.980;11.652;2024-02-26T00:18:30;7.70;54.10
50758;DHT22;36732;47.980;11.652;2024-02-26T00:20:55;7.70;54.00
50758;DHT22;36732;47.980;11.652;2024-02-26T00:23:21;7.70;53.90
50758;DHT22;36732;47.980;11.652;2024-02-26T00:25:48;7.70;54.00
50758;DHT22;36732;47.980;11.652;2024-02-26T00:28:14;7.70;54.00
50758;DHT22;36732;47.980;11.652;2024-02-26T00:30:39;7.70;54.00
50758;DHT22;36732;47.980;11.652;2024-02-26T00:33:05;7.70;53.90
50758;DHT22;36732;47.980;11.652;2024-02-26T00:35:31;7.70;53.80
50758;DHT22;36732;47.980;11.652;2024-02-26T00:37:56;7.70;53.80
50758;DHT22;36732;47.980;11.652;2024-02-26T00:40:24;7.70;53.80
50758;DHT22;36732;47.980;11.652;2024-02-26T00:42:49;7.60;53.70
50758;DHT22;36732;47.980;11.652;2024-02-26T00:45:15;7.60;53.70
50758;DHT22;36732;47.980;11.652;2024-02-26T00:47:41;7.60;53.70
50758;DHT22;36732;47.980;11.652;2024-02-26T00:50:07;7.60;53.70
50758;DHT22;36732;47.980;11.652;2024-02-26T00:52:34;7.60;53.70
50758;DHT22;36732;47.980;11.652;2024-02-26T00:54:59;7.60;53.60
50758;DHT22;36732;47.980;11.652;2024-02-26T00:57:25;7.60;53.60
50758;DHT22;36732;47.980;11.652;2024-02-26T00:59:51;7.60;53.60
50758;DHT22;36732;47.980;11.652;2024-02-26T01:02:17;7.50;53.50
50758;DHT22;36732;47.980;11.652;2024-02-26T01:04:42;7.60;53.60
50758;DHT22;36732;47.980;11.652;2024-02-26T01:07:09;7.60;53.70
50758;DHT22;36732;47.980;11.652;2024-02-26T01:09:34;7.50;53.60
50758;DHT22;36732;47.980;11.652;2024-02-26T01:12:00;7.50;53.70
50758;DHT22;36732;47.980;11.652;2024-02-26T01:14:28;7.50;53.60
50758;DHT22;36732;47.980;11.652;2024-02-26T01:16:53;7.50;53.60
50758;DHT22;36732;47.980;11.652;2024-02-26T01:19:19;7.50;53.60
50758;DHT22;36732;47.980;11.652;2024-02-26T01:21:45;7.50;53.50
50758;DHT22;36732;47.980;11.652;2024-02-26T01:24:11;7.50;53.50
50758;DHT22;36732;47.980;11.652;2024-02-26T01:26:36;7.50;53.50
50758;DHT22;36732;47.980;11.652;2024-02-26T01:29:02;7.50;53.50
50758;DHT22;36732;47.980;11.652;2024-02-26T01:31:28;7.50;53.50
50758;DHT22;36732;47.980;11.652;2024-02-26T01:33:53;7.50;53.50
50758;DHT22;36732;47.980;11.652;2024-02-26T01:36:19;7.50;53.50
50758;DHT22;36732;47.980;11.652;2024-02-26T01:38:45;7.50;53.50
50758;DHT22;36732;47.980;11.652;2024-02-26T01:41:11;7.40;53.40
50758;DHT22;36732;47.980;11.652;2024-02-26T01:43:36;7.40;53.40
50758;DHT22;36732;47.980;11.652;2024-02-26T01:46:03;7.40;53.40
50758;DHT22;36732;47.980;11.652;2024-02-26T01:48:29;7.40;53.30
50758;DHT22;36732;47.980;11.652;2024-02-26T01:50:55;7.40;53.30
50758;DHT22;36732;47.980;11.652;2024-02-26T01:53:21;7.40;53.30
50758;DHT22;36732;47.980;11.652;2024-02-26T01:55:46;7.40;53.30
50758;DHT22;36732;47.980;11.652;2024-02-26T01:58:13;7.40;53.20
50758;DHT22;36732;47.980;11.652;2024-02-26T02:00:39;7.40;53.20
50758;DHT22;36732;47.980;11.652;2024-02-26T02:03:05;7.40;53.30
50758;DHT22;36732;47.980;11.652;2024-02-26T02:05:31;7.30;53.30
50758;DHT22;36732;47.980;11.652;2024-02-26T02:07:58;7.30;53.30
50758;DHT22;36732;47.980;11.652;2024-02-26T02:10:25;7.30;53.30
50758;DHT22;36732;47.980;11.652;2024-02-26T02:12:52;7.30;53.40
50758;DHT22;36732;47.980;11.652;2024-02-26T02:15:18;7.30;53.50
50758;DHT22;36732;47.980;11.652;2024-02-26T02:17:43;7.30;53.40
50758;DHT22;36732;47.980;11.652;2024-02-26T02:20:18;7.30;53.30
50758;DHT22;36732;47.980;11.652;2024-02-26T02:22:45;7.20;53.00
50758;DHT22;36732;47.980;11.652;2024-02-26T02:25:11;7.20;53.10
50758;DHT22;36732;47.980;11.652;2024-02-26T02:27:36;7.20;53.10
50758;DHT22;36732;47.980;11.652;2024-02-26T02:30:03;7.20;53.10
50758;DHT22;36732;47.980;11.652;2024-02-26T02:32:29;7.20;53.00
50758;DHT22;36732;47.980;11.652;2024-02-26T02:34:56;7.20;53.10
50758;DHT22;36732;47.980;11.652;2024-02-26T02:37:22;7.20;53.10
50758;DHT22;36732;47.980;11.652;2024-02-26T02:39:47;7.20;53.30
50758;DHT22;36732;47.980;11.652;2024-02-26T02:42:13;7.20;53.20
50758;DHT22;36732;47.980;11.652;2024-02-26T02:44:39;7.10;53.20
50758;DHT22;36732;47.980;11.652;2024-02-26T02:47:04;7.10;53.20
50758;DHT22;36732;47.980;11.652;2024-02-26T02:49:30;7.10;53.30
50758;DHT22;36732;47.980;11.652;2024-02-26T02:51:56;7.10;53.20
50758;DHT22;36732;47.980;11.652;2024-02-26T02:54:23;7.10;53.20
50758;DHT22;36732;47.980;11.652;2024-02-26T02:56:48;7.10;53.20
50758;DHT22;36732;47.980;11.652;2024-02-26T02:59:14;7.10;53.10
50758;DHT22;36732;47.980;11.652;2024-02-26T03:01:40;7.10;53.10
50758;DHT22;36732;47.980;11.652;2024-02-26T03:04:06;7.10;53.20
50758;DHT22;36732;47.980;11.652;2024-02-26T03:06:31;7.10;53.30
50758;DHT22;36732;47.980;11.652;2024-02-26T03:08:57;7.00;53.30
50758;DHT22;36732;47.980;11.652;2024-02-26T03:11:23;7.00;53.30
50758;DHT22;36732;47.980;11.652;2024-02-26T03:13:48;7.00;53.30
50758;DHT22;36732;47.980;11.652;2024-02-26T03:16:14;7.00;53.30
50758;DHT22;36732;47.980;11.652;2024-02-26T03:18:40;7.00;53.20
50758;DHT22;36732;47.980;11.652;2024-02-26T03:21:06;7.00;53.30
50758;DHT22;36732;47.980;11.652;2024-02-26T03:23:32;7.00;53.40
50758;DHT22;36732;47.980;11.652;2024-02-26T03:26:03;7.00;53.50
50758;DHT22;36732;47.980;11.652;2024-02-26T03:28:29;7.00;53.60
50758;DHT22;36732;47.980;11.652;2024-02-26T03:30:56;7.00;53.60
50758;DHT22;36732;47.980;11.652;2024-02-26T03:33:22;7.00;53.70
50758;DHT22;36732;47.980;11.652;2024-02-26T03:35:47;6.90;53.70
50758;DHT22;36732;47.980;11.652;2024-02-26T03:38:13;6.90;54.40
50758;DHT22;36732;47.980;11.652;2024-02-26T03:40:39;6.90;53.70
50758;DHT22;36732;47.980;11.652;2024-02-26T03:43:04;6.90;53.70
50758;DHT22;36732;47.980;11.652;2024-02-26T03:45:32;6.90;53.80
50758;DHT22;36732;47.980;11.652;2024-02-26T03:47:58;6.90;53.70
50758;DHT22;36732;47.980;11.652;2024-02-26T03:50:24;6.90;53.70
50758;DHT22;36732;47.980;11.652;2024-02-26T03:52:50;6.90;53.70
50758;DHT22;36732;47.980;11.652;2024-02-26T03:55:15;6.90;53.70
50758;DHT22;36732;47.980;11.652;2024-02-26T03:57:43;6.90;53.70
50758;DHT22;36732;47.980;11.652;2024-02-26T04:00:10;6.90;53.60
50758;DHT22;36732;47.980;11.652;2024-02-26T04:02:36;6.90;53.50
50758;DHT22;36732;47.980;11.652;2024-02-26T04:05:01;6.90;53.50
50758;DHT22;36732;47.980;11.652;2024-02-26T04:07:27;6.90;53.50
50758;DHT22;36732;47.980;11.652;2024-02-26T04:09:53;6.90;53.50
50758;DHT22;36732;47.980;11.652;2024-02-26T04:12:18;6.90;53.50
50758;DHT22;36732;47.980;11.652;2024-02-26T04:14:44;6.90;53.60
50758;DHT22;36732;47.980;11.652;2024-02-26T04:17:10;6.90;53.70
50758;DHT22;36732;47.980;11.652;2024-02-26T04:19:36;6.90;53.60
50758;DHT22;36732;47.980;11.652;2024-02-26T04:22:02;6.90;53.60
50758;DHT22;36732;47.980;11.652;2024-02-26T04:24:28;6.80;53.50
50758;DHT22;36732;47.980;11.652;2024-02-26T04:26:53;6.90;53.50
50758;DHT22;36732;47.980;11.652;2024-02-26T04:29:19;6.80;53.50
50758;DHT22;36732;47.980;11.652;2024-02-26T04:31:45;6.90;53.50
50758;DHT22;36732;47.980;11.652;2024-02-26T04:34:12;6.80;53.40
50758;DHT22;36732;47.980;11.652;2024-02-26T04:36:37;6.80;53.40
50758;DHT22;36732;47.980;11.652;2024-02-26T04:39:03;6.80;53.40
50758;DHT22;36732;47.980;11.652;2024-02-26T04:41:29;6.80;53.30
50758;DHT22;36732;47.980;11.652;2024-02-26T04:43:54;6.80;53.40
50758;DHT22;36732;47.980;11.652;2024-02-26T04:46:20;6.80;53.50
50758;DHT22;36732;47.980;11.652;2024-02-26T04:48:47;6.80;53.40
50758;DHT22;36732;47.980;11.652;2024-02-26T04:51:13;6.80;53.40
50758;DHT22;36732;47.980;11.652;2024-02-26T04:53:38;6.80;53.50
50758;DHT22;36732;47.980;11.652;2024-02-26T04:56:04;6.80;53.50
50758;DHT22;36732;47.980;11.652;2024-02-26T04:58:30;6.80;53.50
50758;DHT22;36732;47.980;11.652;2024-02-26T05:00:56;6.80;53.40
50758;DHT22;36732;47.980;11.652;2024-02-26T05:03:22;6.80;53.40
50758;DHT22;36732;47.980;11.652;2024-02-26T05:05:47;6.80;53.40
50758;DHT22;36732;47.980;11.652;2024-02-26T05:08:13;6.70;53.40
50758;DHT22;36732;47.980;11.652;2024-02-26T05:10:39;6.70;53.40
50758;DHT22;36732;47.980;11.652;2024-02-26T05:13:07;6.70;53.40
50758;DHT22;36732;47.980;11.652;2024-02-26T05:15:33;6.70;53.50
50758;DHT22;36732;47.980;11.652;2024-02-26T05:17:58;6.70;53.50
50758;DHT22;36732;47.980;11.652;2024-02-26T05:20:24;6.70;53.40
50758;DHT22;36732;47.980;11.652;2024-02-26T05:22:50;6.70;53.40
50758;DHT22;36732;47.980;11.652;2024-02-26T05:25:16;6.70;53.40
50758;DHT22;36732;47.980;11.652;2024-02-26T05:27:43;6.70;53.30
50758;DHT22;36732;47.980;11.652;2024-02-26T05:30:10;6.70;53.30
50758;DHT22;36732;47.980;11.652;2024-02-26T05:32:36;6.70;54.00
50758;DHT22;36732;47.980;11.652;2024-02-26T05:35:02;6.70;53.30
50758;DHT22;36732;47.980;11.652;2024-02-26T05:37:30;6.70;53.30
50758;DHT22;36732;47.980;11.652;2024-02-26T05:39:56;6.70;53.40
50758;DHT22;36732;47.980;11.652;2024-02-26T05:42:22;6.70;53.40
50758;DHT22;36732;47.980;11.652;2024-02-26T05:44:47;6.70;53.40
50758;DHT22;36732;47.980;11.652;2024-02-26T05:47:13;6.70;53.50
50758;DHT22;36732;47.980;11.652;2024-02-26T05:49:39;6.70;53.50
50758;DHT22;36732;47.980;11.652;2024-02-26T05:52:05;6.70;53.60
50758;DHT22;36732;47.980;11.652;2024-02-26T05:54:31;6.70;53.60
50758;DHT22;36732;47.980;11.652;2024-02-26T05:56:57;6.70;53.70
50758;DHT22;36732;47.980;11.652;2024-02-26T05:59:23;6.70;53.70
50758;DHT22;36732;47.980;11.652;2024-02-26T06:01:49;6.70;53.70
50758;DHT22;36732;47.980;11.652;2024-02-26T06:04:14;6.70;53.80
50758;DHT22;36732;47.980;11.652;2024-02-26T06:06:40;6.70;53.80
50758;DHT22;36732;47.980;11.652;2024-02-26T06:09:06;6.70;53.70
50758;DHT22;36732;47.980;11.652;2024-02-26T06:11:32;6.70;53.70
50758;DHT22;36732;47.980;11.652;2024-02-26T06:13:57;6.70;53.80
50758;DHT22;36732;47.980;11.652;2024-02-26T06:16:23;6.70;53.80
50758;DHT22;36732;47.980;11.652;2024-02-26T06:18:49;6.70;54.00
50758;DHT22;36732;47.980;11.652;2024-02-26T06:21:15;6.70;54.70
50758;DHT22;36732;47.980;11.652;2024-02-26T06:23:40;6.70;54.10
50758;DHT22;36732;47.980;11.652;2024-02-26T06:26:06;6.70;54.30
50758;DHT22;36732;47.980;11.652;2024-02-26T06:28:32;6.70;54.30
50758;DHT22;36732;47.980;11.652;2024-02-26T06:30:59;6.70;54.40
50758;DHT22;36732;47.980;11.652;2024-02-26T06:33:25;6.70;54.60
50758;DHT22;36732;47.980;11.652;2024-02-26T06:35:50;6.70;54.60
50758;DHT22;36732;47.980;11.652;2024-02-26T06:38:16;6.70;54.60
50758;DHT22;36732;47.980;11.652;2024-02-26T06:40:43;6.70;54.80
50758;DHT22;36732;47.980;11.652;2024-02-26T06:43:09;6.70;54.80
50758;DHT22;36732;47.980;11.652;2024-02-26T06:45:35;6.80;54.80
50758;DHT22;36732;47.980;11.652;2024-02-26T06:48:01;6.80;54.80
50758;DHT22;36732;47.980;11.652;2024-02-26T06:50:27;6.80;54.80
50758;DHT22;36732;47.980;11.652;2024-02-26T06:52:53;6.80;54.80
50758;DHT22;36732;47.980;11.652;2024-02-26T06:55:19;6.90;55.00
50758;DHT22;36732;47.980;11.652;2024-02-26T06:57:45;6.80;55.10
50758;DHT22;36732;47.980;11.652;2024-02-26T07:00:11;6.90;55.30
50758;DHT22;36732;47.980;11.652;2024-02-26T07:02:44;6.90;55.50
50758;DHT22;36732;47.980;11.652;2024-02-26T07:05:09;6.90;55.60
50758;DHT22;36732;47.980;11.652;2024-02-26T07:07:35;7.00;55.70
50758;DHT22;36732;47.980;11.652;2024-02-26T07:10:01;7.00;55.80
50758;DHT22;36732;47.980;11.652;2024-02-26T07:12:29;7.00;55.90
50758;DHT22;36732;47.980;11.652;2024-02-26T07:14:55;7.00;56.00
50758;DHT22;36732;47.980;11.652;2024-02-26T07:17:21;7.00;55.90
50758;DHT22;36732;47.980;11.652;2024-02-26T07:19:47;7.00;55.90
50758;DHT22;36732;47.980;11.652;2024-02-26T07:22:12;7.10;56.10
50758;DHT22;36732;47.980;11.652;2024-02-26T07:24:39;7.10;56.20
50758;DHT22;36732;47.980;11.652;2024-02-26T07:27:04;7.10;56.30
50758;DHT22;36732;47.980;11.652;2024-02-26T07:29:30;7.10;56.40
50758;DHT22;36732;47.980;11.652;2024-02-26T07:31:56;7.10;56.40
50758;DHT22;36732;47.980;11.652;2024-02-26T07:34:22;7.20;56.40
50758;DHT22;36732;47.980;11.652;2024-02-26T07:36:53;7.20;56.50
50758;DHT22;36732;47.980;11.652;2024-02-26T07:39:19;7.20;56.60
50758;DHT22;36732;47.980;11.652;2024-02-26T07:41:44;7.20;56.70
50758;DHT22;36732;47.980;11.652;2024-02-26T07:44:13;7.30;56.80
50758;DHT22;36732;47.980;11.652;2024-02-26T07:46:39;7.30;57.00
50758;DHT22;36732;47.980;11.652;2024-02-26T07:49:05;7.30;57.00
50758;DHT22;36732;47.980;11.652;2024-02-26T07:51:30;7.30;56.90
50758;DHT22;36732;47.980;11.652;2024-02-26T07:53:56;7.40;56.90
50758;DHT22;36732;47.980;11.652;2024-02-26T07:56:22;7.40;57.00
50758;DHT22;36732;47.980;11.652;2024-02-26T07:58:47;7.40;56.90
50758;DHT22;36732;47.980;11.652;2024-02-26T08:01:13;7.40;56.90
50758;DHT22;36732;47.980;11.652;2024-02-26T08:03:40;7.40;56.90
50758;DHT22;36732;47.980;11.652;2024-02-26T08:06:05;7.50;56.90
50758;DHT22;36732;47.980;11.652;2024-02-26T08:08:33;7.50;56.90
50758;DHT22;36732;47.980;11.652;2024-02-26T08:10:58;7.50;56.80
50758;DHT22;36732;47.980;11.652;2024-02-26T08:13:24;7.50;56.80
50758;DHT22;36732;47.980;11.652;2024-02-26T08:15:51;7.60;56.80
50758;DHT22;36732;47.980;11.652;2024-02-26T08:18:17;7.60;56.90
50758;DHT22;36732;47.980;11.652;2024-02-26T08:20:43;7.60;57.10
50758;DHT22;36732;47.980;11.652;2024-02-26T08:23:09;7.60;57.30
50758;DHT22;36732;47.980;11.652;2024-02-26T08:25:34;7.70;57.60
50758;DHT22;36732;47.980;11.652;2024-02-26T08:28:00;7.60;57.80
50758;DHT22;36732;47.980;11.652;2024-02-26T08:30:26;7.70;58.10
50758;DHT22;36732;47.980;11.652;2024-02-26T08:32:52;7.70;58.10
50758;DHT22;36732;47.980;11.652;2024-02-26T08:35:18;7.70;58.10
50758;DHT22;36732;47.980;11.652;2024-02-26T08:37:45;7.70;58.10
50758;DHT22;36732;47.980;11.652;2024-02-26T08:40:11;7.70;58.20
50758;DHT22;36732;47.980;11.652;2024-02-26T08:42:37;7.70;58.40
50758;DHT22;36732;47.980;11.652;2024-02-26T08:45:03;7.80;58.50
50758;DHT22;36732;47.980;11.652;2024-02-26T08:47:29;7.80;58.50
50758;DHT22;36732;47.980;11.652;2024-02-26T08:49:54;7.80;58.50
50758;DHT22;36732;47.980;11.652;2024-02-26T08:52:20;7.80;58.50
50758;DHT22;36732;47.980;11.652;2024-02-26T08:54:47;7.80;58.60
50758;DHT22;36732;47.980;11.652;2024-02-26T08:57:13;7.90;58.60
50758;DHT22;36732;47.980;11.652;2024-02-26T08:59:38;7.90;58.60
50758;DHT22;36732;47.980;11.652;2024-02-26T09:02:05;7.90;58.60
50758;DHT22;36732;47.980;11.652;2024-02-26T09:04:31;7.90;58.80
50758;DHT22;36732;47.980;11.652;2024-02-26T09:06:57;7.90;58.90
50758;DHT22;36732;47.980;11.652;2024-02-26T09:09:22;7.90;58.90
50758;DHT22;36732;47.980;11.652;2024-02-26T09:11:50;7.90;59.00
50758;DHT22;36732;47.980;11.652;2024-02-26T09:14:18;8.00;59.20
50758;DHT22;36732;47.980;11.652;2024-02-26T09:16:43;8.00;59.20
50758;DHT22;36732;47.980;11.652;2024-02-26T09:19:09;8.00;59.20
50758;DHT22;36732;47.980;11.652;2024-02-26T09:21:35;8.00;59.20
50758;DHT22;36732;47.980;11.652;2024-02-26T09:24:00;8.10;59.30
50758;DHT22;36732;47.980;11.652;2024-02-26T09:26:26;8.10;59.30
50758;DHT22;36732;47.980;11.652;2024-02-26T09:28:52;8.10;59.40
50758;DHT22;36732;47.980;11.652;2024-02-26T09:31:18;8.10;59.40
50758;DHT22;36732;47.980;11.652;2024-02-26T09:33:44;8.10;59.40
50758;DHT22;36732;47.980;11.652;2024-02-26T09:36:09;8.10;59.50
50758;DHT22;36732;47.980;11.652;2024-02-26T09:38:36;8.20;59.70
50758;DHT22;36732;47.980;11.652;2024-02-26T09:41:04;8.20;59.80
50758;DHT22;36732;47.980;11.652;2024-02-26T09:43:35;8.20;59.90
50758;DHT22;36732;47.980;11.652;2024-02-26T09:46:05;8.20;60.10
50758;DHT22;36732;47.980;11.652;2024-02-26T09:48:32;8.30;60.10
50758;DHT22;36732;47.980;11.652;2024-02-26T09:51:01;8.30;60.10
50758;DHT22;36732;47.980;11.652;2024-02-26T09:53:28;8.30;60.10
50758;DHT22;36732;47.980;11.652;2024-02-26T09:55:54;8.40;60.00
50758;DHT22;36732;47.980;11.652;2024-02-26T09:58:20;8.40;59.90
50758;DHT22;36732;47.980;11.652;2024-02-26T10:00:53;8.40;59.90
50758;DHT22;36732;47.980;11.652;2024-02-26T10:03:27;8.50;59.70
50758;DHT22;36732;47.980;11.652;2024-02-26T10:05:56;8.50;59.40
50758;DHT22;36732;47.980;11.652;2024-02-26T10:08:23;8.50;59.30
50758;DHT22;36732;47.980;11.652;2024-02-26T10:10:49;8.50;59.30
50758;DHT22;36732;47.980;11.652;2024-02-26T10:13:15;8.60;59.30
50758;DHT22;36732;47.980;11.652;2024-02-26T10:15:41;8.60;59.40
50758;DHT22;36732;47.980;11.652;2024-02-26T10:18:07;8.60;59.40
50758;DHT22;36732;47.980;11.652;2024-02-26T10:20:33;8.60;59.40
50758;DHT22;36732;47.980;11.652;2024-02-26T10:23:02;8.60;59.40
50758;DHT22;36732;47.980;11.652;2024-02-26T10:25:28;8.70;59.40
50758;DHT22;36732;47.980;11.652;2024-02-26T10:28:00;8.70;59.50
50758;DHT22;36732;47.980;11.652;2024-02-26T10:30:29;8.70;59.40
50758;DHT22;36732;47.980;11.652;2024-02-26T10:32:56;8.70;59.40
50758;DHT22;36732;47.980;11.652;2024-02-26T10:35:22;8.70;59.40
50758;DHT22;36732;47.980;11.652;2024-02-26T10:37:49;8.70;59.30
50758;DHT22;36732;47.980;11.652;2024-02-26T10:40:15;8.70;59.40
50758;DHT22;36732;47.980;11.652;2024-02-26T10:42:42;8.80;59.50
50758;DHT22;36732;47.980;11.652;2024-02-26T10:45:09;8.80;59.60
50758;DHT22;36732;47.980;11.652;2024-02-26T10:47:36;8.80;59.70
50758;DHT22;36732;47.980;11.652;2024-02-26T10:50:03;8.80;59.70
50758;DHT22;36732;47.980;11.652;2024-02-26T10:52:35;8.80;59.80
50758;DHT22;36732;47.980;11.652;2024-02-26T10:55:03;8.90;59.90
50758;DHT22;36732;47.980;11.652;2024-02-26T10:57:40;8.90;59.70
50758;DHT22;36732;47.980;11.652;2024-02-26T11:00:07;8.90;59.40
50758;DHT22;36732;47.980;11.652;2024-02-26T11:02:36;8.90;59.40
50758;DHT22;36732;47.980;11.652;2024-02-26T11:05:03;8.90;59.30
50758;DHT22;36732;47.980;11.652;2024-02-26T11:07:30;9.00;59.30
50758;DHT22;36732;47.980;11.652;2024-02-26T11:09:59;9.00;59.20
50758;DHT22;36732;47.980;11.652;2024-02-26T11:12:25;9.00;59.20
50758;DHT22;36732;47.980;11.652;2024-02-26T11:14:55;9.00;59.20
50758;DHT22;36732;47.980;11.652;2024-02-26T11:17:28;9.10;59.10
50758;DHT22;36732;47.980;11.652;2024-02-26T11:19:58;9.10;58.90
50758;DHT22;36732;47.980;11.652;2024-02-26T11:22:25;9.10;58.90
50758;DHT22;36732;47.980;11.652;2024-02-26T11:24:54;9.10;58.80
50758;DHT22;36732;47.980;11.652;2024-02-26T11:27:32;9.20;58.70
50758;DHT22;36732;47.980;11.652;2024-02-26T11:30:01;9.20;58.70
50758;DHT22;36732;47.980;11.652;2024-02-26T11:32:30;9.30;58.90
50758;DHT22;36732;47.980;11.652;2024-02-26T11:34:58;9.20;58.80
50758;DHT22;36732;47.980;11.652;2024-02-26T11:37:24;9.30;58.80
50758;DHT22;36732;47.980;11.652;2024-02-26T11:39:51;9.30;58.80
50758;DHT22;36732;47.980;11.652;2024-02-26T11:42:23;9.30;58.60
50758;DHT22;36732;47.980;11.652;2024-02-26T11:44:50;9.40;58.30
50758;DHT22;36732;47.980;11.652;2024-02-26T11:47:21;9.40;58.30
50758;DHT22;36732;47.980;11.652;2024-02-26T11:49:48;9.40;58.10
50758;DHT22;36732;47.980;11.652;2024-02-26T11:52:14;9.50;58.30
50758;DHT22;36732;47.980;11.652;2024-02-26T11:57:27;9.50;58.20
50758;DHT22;36732;47.980;11.652;2024-02-26T12:00:14;9.50;58.10
50758;DHT22;36732;47.980;11.652;2024-02-26T12:02:50;9.60;57.80
50758;DHT22;36732;47.980;11.652;2024-02-26T12:05:31;9.70;58.00
50758;DHT22;36732;47.980;11.652;2024-02-26T12:08:05;9.70;58.00
50758;DHT22;36732;47.980;11.652;2024-02-26T12:10:35;9.70;58.10
50758;DHT22;36732;47.980;11.652;2024-02-26T12:13:14;9.80;58.10
50758;DHT22;36732;47.980;11.652;2024-02-26T12:15:57;9.80;58.00
50758;DHT22;36732;47.980;11.652;2024-02-26T12:18:23;9.80;57.80
50758;DHT22;36732;47.980;11.652;2024-02-26T12:21:03;9.90;58.10
50758;DHT22;36732;47.980;11.652;2024-02-26T12:23:29;9.90;57.60
50758;DHT22;36732;47.980;11.652;2024-02-26T12:26:01;9.90;57.70
50758;DHT22;36732;47.980;11.652;2024-02-26T12:28:31;9.90;57.40
50758;DHT22;36732;47.980;11.652;2024-02-26T12:30:57;10.00;57.40
50758;DHT22;36732;47.980;11.652;2024-02-26T12:33:25;9.90;57.00
50758;DHT22;36732;47.980;11.652;2024-02-26T12:35:52;10.00;56.90
50758;DHT22;36732;47.980;11.652;2024-02-26T12:38:18;10.00;56.70
50758;DHT22;36732;47.980;11.652;2024-02-26T12:40:45;10.00;56.60
50758;DHT22;36732;47.980;11.652;2024-02-26T12:43:10;10.10;56.60
50758;DHT22;36732;47.980;11.652;2024-02-26T12:45:40;10.10;56.40
50758;DHT22;36732;47.980;11.652;2024-02-26T12:48:06;10.10;56.30
50758;DHT22;36732;47.980;11.652;2024-02-26T12:50:32;10.10;56.10
50758;DHT22;36732;47.980;11.652;2024-02-26T12:52:59;10.10;56.00
50758;DHT22;36732;47.980;11.652;2024-02-26T12:55:25;10.20;56.00
50758;DHT22;36732;47.980;11.652;2024-02-26T12:57:52;10.20;56.20
50758;DHT22;36732;47.980;11.652;2024-02-26T13:00:21;10.20;56.40
50758;DHT22;36732;47.980;11.652;2024-02-26T13:02:50;10.20;56.70
50758;DHT22;36732;47.980;11.652;2024-02-26T13:05:17;10.30;55.80
50758;DHT22;36732;47.980;11.652;2024-02-26T13:07:45;10.30;55.80
50758;DHT22;36732;47.980;11.652;2024-02-26T13:10:15;10.30;55.70
50758;DHT22;36732;47.980;11.652;2024-02-26T13:12:44;10.30;55.70
50758;DHT22;36732;47.980;11.652;2024-02-26T13:15:15;10.40;55.40
50758;DHT22;36732;47.980;11.652;2024-02-26T13:17:42;10.40;55.00
50758;DHT22;36732;47.980;11.652;2024-02-26T13:20:08;10.30;55.10
50758;DHT22;36732;47.980;11.652;2024-02-26T13:22:38;10.40;54.60
50758;DHT22;36732;47.980;11.652;2024-02-26T13:25:04;10.40;54.40
50758;DHT22;36732;47.980;11.652;2024-02-26T13:27:32;10.40;54.00
50758;DHT22;36732;47.980;11.652;2024-02-26T13:30:08;10.40;54.10
50758;DHT22;36732;47.980;11.652;2024-02-26T13:32:37;10.40;53.60
50758;DHT22;36732;47.980;11.652;2024-02-26T13:35:12;10.40;53.90
50758;DHT22;36732;47.980;11.652;2024-02-26T13:37:39;10.50;53.70
50758;DHT22;36732;47.980;11.652;2024-02-26T13:40:07;10.50;53.90
50758;DHT22;36732;47.980;11.652;2024-02-26T13:42:34;10.50;53.60
50758;DHT22;36732;47.980;11.652;2024-02-26T13:45:00;10.50;53.60
50758;DHT22;36732;47.980;11.652;2024-02-26T13:47:27;10.50;53.60
50758;DHT22;36732;47.980;11.652;2024-02-26T13:49:52;10.50;53.60
50758;DHT22;36732;47.980;11.652;2024-02-26T13:52:18;10.50;53.60
50758;DHT22;36732;47.980;11.652;2024-02-26T13:54:45;10.50;53.60
50758;DHT22;36732;47.980;11.652;2024-02-26T13:57:11;10.60;53.70
50758;DHT22;36732;47.980;11.652;2024-02-26T13:59:37;10.60;53.70
50758;DHT22;36732;47.980;11.652;2024-02-26T14:02:07;10.60;53.70
50758;DHT22;36732;47.980;11.652;2024-02-26T14:04:32;10.60;53.70
50758;DHT22;36732;47.980;11.652;2024-02-26T14:06:58;10.70;53.70
50758;DHT22;36732;47.980;11.652;2024-02-26T14:09:24;10.70;53.70
50758;DHT22;36732;47.980;11.652;2024-02-26T14:11:49;10.70;53.70
50758;DHT22;36732;47.980;11.652;2024-02-26T14:14:15;10.70;53.70
50758;DHT22;36732;47.980;11.652;2024-02-26T14:16:41;10.70;53.70
50758;DHT22;36732;47.980;11.652;2024-02-26T14:19:07;10.70;53.70
50758;DHT22;36732;47.980;11.652;2024-02-26T14:21:32;10.70;53.70
50758;DHT22;36732;47.980;11.652;2024-02-26T14:23:58;10.70;53.70
50758;DHT22;36732;47.980;11.652;2024-02-26T14:26:24;10.70;53.70
50758;DHT22;36732;47.980;11.652;2024-02-26T14:28:49;10.70;53.70
50758;DHT22;36732;47.980;11.652;2024-02-26T14:31:18;10.70;53.70
50758;DHT22;36732;47.980;11.652;2024-02-26T14:33:44;10.70;53.70
50758;DHT22;36732;47.980;11.652;2024-02-26T14:36:10;10.70;53.70
50758;DHT22;36732;47.980;11.652;2024-02-26T14:38:37;10.70;53.90
50758;DHT22;36732;47.980;11.652;2024-02-26T14:41:04;10.70;54.20
50758;DHT22;36732;47.980;11.652;2024-02-26T14:43:29;10.70;54.40
50758;DHT22;36732;47.980;11.652;2024-02-26T14:45:57;10.70;54.60
50758;DHT22;36732;47.980;11.652;2024-02-26T14:48:22;10.70;54.80
50758;DHT22;36732;47.980;11.652;2024-02-26T14:50:49;10.70;54.90
50758;DHT22;36732;47.980;11.652;2024-02-26T14:53:16;10.70;55.00
50758;DHT22;36732;47.980;11.652;2024-02-26T14:55:42;10.70;54.90
50758;DHT22;36732;47.980;11.652;2024-02-26T14:58:08;10.70;54.80
50758;DHT22;36732;47.980;11.652;2024-02-26T15:00:36;10.70;54.80
50758;DHT22;36732;47.980;11.652;2024-02-26T15:03:03;10.70;54.60
50758;DHT22;36732;47.980;11.652;2024-02-26T15:05:29;10.70;54.50
50758;DHT22;36732;47.980;11.652;2024-02-26T15:07:55;10.70;54.30
50758;DHT22;36732;47.980;11.652;2024-02-26T15:10:20;10.70;54.30
50758;DHT22;36732;47.980;11.652;2024-02-26T15:12:46;10.70;54.30
50758;DHT22;36732;47.980;11.652;2024-02-26T15:15:12;10.70;54.40
50758;DHT22;36732;47.980;11.652;2024-02-26T15:17:38;10.70;54.40
50758;DHT22;36732;47.980;11.652;2024-02-26T15:20:04;10.70;54.40
50758;DHT22;36732;47.980;11.652;2024-02-26T15:22:33;10.70;54.50
50758;DHT22;36732;47.980;11.652;2024-02-26T15:24:59;10.70;54.50
50758;DHT22;36732;47.980;11.652;2024-02-26T15:27:24;10.70;54.60